createdAt,value
2019-04-23T00:00:45.602Z,43.88
2019-04-23T00:04:03.741Z,43.88
2019-04-23T00:06:55.287Z,44.46
2019-04-23T00:09:48.277Z,44.79
2019-04-23T00:15:55.297Z,44.79
2019-04-23T00:18:46.758Z,45.20
2019-04-23T00:21:46.025Z,44.69
2019-04-23T00:25:12.169Z,44.79
2019-04-23T00:27:42.628Z,44.81
2019-04-23T00:30:49.733Z,44.81
2019-04-23T00:33:54.120Z,45.00
2019-04-23T00:36:45.934Z,44.61
2019-04-23T00:39:51.453Z,46.34
2019-04-23T00:42:47.796Z,45.94
2019-04-23T00:51:45.968Z,46.04
2019-04-23T00:54:55.284Z,46.14
2019-04-23T00:57:48.739Z,46.25
2019-04-23T01:00:49.011Z,46.25
2019-04-23T01:03:42.542Z,46.86
2019-04-23T01:06:46.074Z,46.96
2019-04-23T01:09:45.867Z,46.88
2019-04-23T01:12:46.694Z,47.57
2019-04-23T01:15:46.431Z,47.29
2019-04-23T01:18:53.026Z,47.16
2019-04-23T01:21:22.389Z,47.29
2019-04-23T01:24:25.399Z,47.37
2019-04-23T01:27:51.558Z,47.37
2019-04-23T01:30:47.184Z,48.61
2019-04-23T01:33:51.456Z,47.06
2019-04-23T01:36:44.685Z,48.10
2019-04-23T01:39:45.478Z,48.21
2019-04-23T01:42:44.896Z,48.67
2019-04-23T01:45:35.896Z,48.08
2019-04-23T01:48:52.006Z,48.39
2019-04-23T01:51:54.025Z,48.28
2019-04-23T01:54:46.570Z,48.69
2019-04-23T01:57:56.305Z,49.30
2019-04-23T02:00:47.893Z,49.10
2019-04-23T02:03:48.473Z,49.92
2019-04-23T02:06:45.834Z,49.82
2019-04-23T02:09:53.179Z,49.71
2019-04-23T02:12:56.882Z,50.02
2019-04-23T02:15:49.176Z,50.63
2019-04-23T02:18:49.299Z,50.96
2019-04-23T02:21:54.815Z,50.84
2019-04-23T02:24:47.584Z,51.07
2019-04-23T02:27:51.704Z,51.48
2019-04-23T02:36:54.458Z,51.65
2019-04-23T02:52:03.985Z,52.19
2019-04-23T02:55:10.842Z,52.80
2019-04-23T02:57:56.402Z,53.01
2019-04-23T03:06:56.763Z,53.98
2019-04-23T03:09:55.011Z,53.85
2019-04-23T03:16:04.426Z,55.82
2019-04-23T03:18:52.112Z,55.10
2019-04-23T03:24:54.575Z,55.00
2019-04-23T03:27:50.778Z,55.30
2019-04-23T03:32:37.630Z,55.41
2019-04-23T03:33:58.855Z,56.02
2019-04-23T03:43:01.284Z,56.15
2019-04-23T03:52:07.542Z,55.82
2019-04-23T03:54:49.046Z,56.02
2019-04-23T04:09:52.056Z,56.66
2019-04-23T04:13:07.008Z,57.58
2019-04-23T04:22:16.334Z,57.07
2019-04-23T04:25:06.989Z,57.68
2019-04-23T04:31:05.827Z,57.07
2019-04-23T04:37:18.352Z,56.23
2019-04-23T04:43:04.662Z,56.63
2019-04-23T04:46:06.861Z,55.79
2019-04-23T04:52:05.284Z,56.51
2019-04-23T04:54:47.793Z,56.38
2019-04-23T04:57:52.405Z,56.04
2019-04-23T05:03:35.278Z,55.94
2019-04-23T05:07:06.210Z,55.23
2019-04-23T05:09:55.568Z,55.20
2019-04-23T05:12:52.111Z,55.02
2019-04-23T05:24:46.483Z,53.75
2019-04-23T05:27:53.661Z,53.75
2019-04-23T05:33:48.959Z,53.11
2019-04-23T05:37:00.127Z,52.70
2019-04-23T05:39:49.860Z,53.22
2019-04-23T05:42:49.731Z,53.11
2019-04-23T05:45:49.568Z,52.98
2019-04-23T05:48:50.870Z,53.29
2019-04-23T05:51:50.899Z,52.78
2019-04-23T05:54:54.791Z,53.09
2019-04-23T05:57:45.722Z,52.78
2019-04-23T06:00:59.308Z,52.68
2019-04-23T06:03:49.119Z,52.55
2019-04-23T06:09:48.041Z,53.06
2019-04-23T06:12:45.314Z,49.69
2019-04-23T06:15:46.749Z,43.99
2019-04-23T06:18:44.478Z,42.35
2019-04-23T06:22:23.462Z,41.63
2019-04-23T06:24:46.794Z,40.96
2019-04-23T06:27:45.991Z,40.44
2019-04-23T06:30:50.460Z,40.80
2019-04-23T06:35:28.998Z,39.73
2019-04-23T06:38:41.230Z,39.11
2019-04-23T06:41:30.545Z,40.88
2019-04-23T06:44:32.328Z,39.53
2019-04-23T06:47:24.807Z,39.92
2019-04-23T06:50:30.183Z,36.74
2019-04-23T06:53:27.197Z,39.53
2019-04-23T06:56:34.654Z,36.58
2019-04-23T06:59:32.309Z,37.29
2019-04-23T07:05:32.608Z,36.89
2019-04-23T07:08:53.894Z,36.02
2019-04-23T07:14:35.843Z,36.72
2019-04-23T07:17:26.612Z,34.91
2019-04-23T07:20:31.688Z,36.47
2019-04-23T07:23:41.720Z,34.16
2019-04-23T07:29:50.637Z,36.33
2019-04-23T07:32:32.833Z,34.39
2019-04-23T07:35:25.667Z,33.98
2019-04-23T07:38:45.745Z,34.06
2019-04-23T07:41:49.822Z,35.80
2019-04-23T07:44:40.291Z,36.43
2019-04-23T07:47:24.865Z,36.43
2019-04-23T07:53:46.698Z,32.67
2019-04-23T07:56:27.894Z,29.86
2019-04-23T07:59:33.526Z,34.06
2019-04-23T08:02:31.241Z,33.01
2019-04-23T08:05:26.592Z,31.46
2019-04-23T08:08:43.299Z,33.83
2019-04-23T08:11:40.371Z,33.08
2019-04-23T08:14:32.782Z,32.48
2019-04-23T08:17:27.922Z,31.65
2019-04-23T08:20:40.619Z,32.63
2019-04-23T08:23:37.520Z,29.57
2019-04-23T08:26:33.687Z,30.93
2019-04-23T08:29:24.969Z,31.63
2019-04-23T08:35:27.240Z,31.65
2019-04-23T08:38:32.312Z,35.05
2019-04-23T08:41:33.692Z,33.91
2019-04-23T08:44:52.649Z,34.12
2019-04-23T08:47:33.106Z,35.26
2019-04-23T08:50:32.119Z,35.16
2019-04-23T08:53:35.779Z,31.55
2019-04-23T08:56:31.788Z,32.76
2019-04-23T08:59:34.801Z,31.54
2019-04-23T09:02:35.409Z,33.80
2019-04-23T09:11:41.892Z,32.79
2019-04-23T09:14:28.268Z,33.29
2019-04-23T09:23:36.361Z,31.84
2019-04-23T09:26:25.907Z,32.65
2019-04-23T09:29:39.278Z,34.23
2019-04-23T09:32:25.122Z,31.67
2019-04-23T09:38:27.324Z,29.54
2019-04-23T09:41:29.921Z,30.96
2019-04-23T09:44:50.795Z,29.61
2019-04-23T09:47:30.029Z,28.17
2019-04-23T09:50:29.275Z,28.91
2019-04-23T09:53:27.894Z,31.81
2019-04-23T09:56:30.095Z,31.48
2019-04-23T09:59:33.229Z,27.75
2019-04-23T10:02:21.964Z,28.88
2019-04-23T10:05:14.096Z,29.44
2019-04-23T10:08:10.090Z,30.86
2019-04-23T10:11:00.798Z,29.43
2019-04-23T10:14:00.720Z,30.66
2019-04-23T10:17:00.109Z,27.68
2019-04-23T10:20:00.586Z,31.84
2019-04-23T10:23:00.158Z,31.36
2019-04-23T10:25:59.626Z,29.64
2019-04-23T10:29:00.174Z,31.26
2019-04-23T10:31:59.759Z,30.85
2019-04-23T10:35:10.386Z,32.12
2019-04-23T10:38:06.324Z,30.76
2019-04-23T10:41:00.559Z,29.54
2019-04-23T10:44:00.791Z,31.48
2019-04-23T10:47:23.783Z,31.19
2019-04-23T10:50:38.713Z,31.27
2019-04-23T10:53:32.734Z,31.12
2019-04-23T10:56:36.219Z,30.75
2019-04-23T10:59:30.095Z,30.13
2019-04-23T11:05:35.653Z,30.15
2019-04-23T11:08:32.278Z,30.13
2019-04-23T11:11:30.741Z,29.51
2019-04-23T11:14:34.330Z,30.56
2019-04-23T11:17:45.881Z,28.66
2019-04-23T11:20:35.265Z,28.97
2019-04-23T11:23:32.643Z,29.50
2019-04-23T11:26:42.397Z,30.38
2019-04-23T11:29:34.445Z,31.54
2019-04-23T11:38:48.897Z,25.50
2019-04-23T11:41:32.402Z,28.88
2019-04-23T11:44:36.514Z,28.70
2019-04-23T11:53:34.130Z,30.42
2019-04-23T11:57:05.988Z,28.28
2019-04-23T12:02:35.472Z,29.86
2019-04-23T12:05:35.897Z,31.02
2019-04-23T12:16:23.263Z,27.01
2019-04-23T12:27:09.623Z,27.23
2019-04-23T12:30:03.576Z,24.96
2019-04-23T12:40:50.261Z,27.01
2019-04-23T12:43:43.523Z,26.51
2019-04-23T12:46:57.665Z,24.66
2019-04-23T12:50:05.037Z,25.40
2019-04-23T12:52:46.891Z,24.37
2019-04-23T12:58:41.543Z,24.27
2019-04-23T13:01:49.814Z,25.56
2019-04-23T13:04:48.693Z,25.63
2019-04-23T13:07:43.924Z,25.45
2019-04-23T13:10:48.206Z,24.46
2019-04-23T13:13:56.437Z,25.18
2019-04-23T13:16:53.917Z,25.89
2019-04-23T13:20:04.106Z,24.26
2019-04-23T13:22:57.729Z,27.08
2019-04-23T13:25:49.080Z,26.01
2019-04-23T13:28:48.412Z,25.48
2019-04-23T13:31:44.689Z,26.06
2019-04-23T13:35:11.193Z,25.81
2019-04-23T13:40:53.143Z,26.10
2019-04-23T13:46:46.732Z,26.42
2019-04-23T13:49:51.301Z,26.31
2019-04-23T13:53:08.208Z,28.18
2019-04-23T13:55:42.549Z,25.40
2019-04-23T13:59:11.099Z,26.95
2019-04-23T14:01:43.017Z,27.23
2019-04-23T14:05:02.570Z,29.37
2019-04-23T14:07:56.910Z,28.27
2019-04-23T14:10:48.176Z,28.50
2019-04-23T14:16:53.828Z,27.51
2019-04-23T14:19:47.245Z,27.22
2019-04-23T14:26:00.017Z,29.61
2019-04-23T14:31:42.944Z,28.81
2019-04-23T14:34:56.417Z,27.49
2019-04-23T14:38:01.364Z,29.94
2019-04-23T14:40:59.588Z,28.42
2019-04-23T14:50:12.900Z,31.17
2019-04-23T14:52:56.893Z,31.18
2019-04-23T14:58:54.824Z,31.29
2019-04-23T15:04:51.775Z,30.87
2019-04-23T15:07:46.519Z,31.35
2019-04-23T15:11:03.727Z,31.47
2019-04-23T15:13:45.618Z,31.60
2019-04-23T15:16:49.862Z,29.85
2019-04-23T15:19:51.117Z,31.07
2019-04-23T15:26:16.088Z,29.95
2019-04-23T15:28:24.823Z,30.86
2019-04-23T15:31:48.904Z,32.11
2019-04-23T15:34:47.002Z,32.81
2019-04-23T15:38:16.380Z,31.58
2019-04-23T15:40:45.223Z,31.81
2019-04-23T15:43:55.003Z,32.84
2019-04-23T15:53:03.184Z,33.53
2019-04-23T15:56:13.889Z,35.38
2019-04-23T15:59:13.042Z,35.29
2019-04-23T16:01:41.893Z,34.89
2019-04-23T16:04:33.725Z,35.06
2019-04-23T16:08:03.421Z,34.18
2019-04-23T16:11:08.075Z,35.17
2019-04-23T16:15:56.515Z,37.59
2019-04-23T16:20:40.386Z,39.35
2019-04-23T16:23:37.691Z,39.05
2019-04-23T16:28:18.826Z,39.65
2019-04-23T16:31:34.781Z,39.61
2019-04-23T16:39:16.279Z,39.63
2019-04-23T16:46:56.375Z,41.07
2019-04-23T16:50:04.512Z,41.88
2019-04-23T16:53:05.199Z,41.69
2019-04-23T16:55:55.409Z,42.19
2019-04-23T17:01:00.758Z,42.80
2019-04-23T17:05:25.067Z,42.41
2019-04-23T17:10:16.077Z,42.61
2019-04-23T17:15:02.720Z,42.33
2019-04-23T17:18:04.304Z,43.64
2019-04-23T17:22:47.921Z,43.74
2019-04-23T17:25:51.777Z,44.36
2019-04-23T17:30:33.651Z,43.86
2019-04-23T17:40:16.167Z,43.90
2019-04-23T17:45:17.102Z,45.01
2019-04-23T17:48:05.515Z,45.71
2019-04-23T17:52:47.362Z,46.03
2019-04-23T17:57:29.557Z,46.44
2019-04-23T18:03:41.618Z,46.66
2019-04-23T18:06:37.665Z,47.28
2019-04-23T18:09:49.047Z,46.88
2019-04-23T18:15:24.358Z,47.71
2019-04-23T18:18:39.141Z,47.81
2019-04-23T18:21:35.751Z,47.91
2019-04-23T18:24:40.635Z,47.83
2019-04-23T18:27:31.090Z,48.64
2019-04-23T18:30:35.197Z,48.14
2019-04-23T18:33:58.202Z,49.15
2019-04-23T18:36:26.088Z,47.63
2019-04-23T18:39:29.276Z,47.63
2019-04-23T18:42:41.672Z,48.16
2019-04-23T18:45:39.024Z,48.26
2019-04-23T18:51:33.909Z,49.29
2019-04-23T18:54:28.315Z,50.10
2019-04-23T18:57:36.775Z,50.12
2019-04-23T19:00:53.588Z,50.22
2019-04-23T19:03:37.588Z,50.22
2019-04-23T19:06:41.220Z,50.20
2019-04-23T19:09:31.670Z,49.72
2019-04-23T19:12:38.229Z,50.12
2019-04-23T19:18:36.331Z,50.32
2019-04-23T19:21:45.952Z,49.29
2019-04-23T19:24:31.543Z,50.22
2019-04-23T19:27:50.297Z,50.22
2019-04-23T19:30:43.022Z,51.45
2019-04-23T19:33:36.664Z,50.93
2019-04-23T19:36:40.284Z,51.25
2019-04-23T19:39:45.426Z,50.22
2019-04-23T19:42:36.842Z,50.12
2019-04-23T19:45:40.440Z,49.92
2019-04-23T19:48:49.893Z,50.62
2019-04-23T19:51:39.381Z,51.03
2019-04-23T19:54:52.585Z,50.82
2019-04-23T19:57:35.675Z,50.82
2019-04-23T20:00:51.355Z,51.15
2019-04-23T20:03:35.781Z,51.45
2019-04-23T20:06:55.314Z,51.15
2019-04-23T20:09:48.709Z,49.94
2019-04-23T20:15:40.930Z,51.35
2019-04-23T20:18:42.958Z,51.66
2019-04-23T20:21:31.788Z,52.09
2019-04-23T20:24:41.569Z,51.89
2019-04-23T20:30:51.004Z,51.78
2019-04-23T20:42:31.328Z,53.14
2019-04-23T20:45:28.789Z,52.94
2019-04-23T20:51:35.852Z,53.45
2019-04-23T20:54:42.234Z,53.14
2019-04-23T20:57:44.065Z,53.45
2019-04-23T21:00:27.621Z,54.18
2019-04-23T21:03:37.607Z,54.49
2019-04-23T21:06:50.356Z,53.55
2019-04-23T21:09:44.892Z,53.55
2019-04-23T21:18:44.241Z,53.65
2019-04-23T21:21:33.828Z,54.16
2019-04-23T21:24:35.007Z,53.25
2019-04-23T21:27:42.668Z,53.55
2019-04-23T21:30:45.504Z,53.14
2019-04-23T21:33:55.346Z,52.94
2019-04-23T21:39:34.580Z,54.38
2019-04-23T21:42:50.337Z,54.08
2019-04-23T21:45:30.522Z,53.98
2019-04-23T21:48:43.499Z,54.28
2019-04-23T21:54:29.270Z,54.08
2019-04-23T21:57:37.063Z,54.28
2019-04-23T22:00:36.114Z,55.60
2019-04-23T22:03:49.535Z,54.49
2019-04-23T22:11:35.894Z,54.99
2019-04-23T22:20:21.421Z,54.71
2019-04-23T22:32:13.079Z,55.32
2019-04-23T22:35:13.648Z,56.73
2019-04-23T22:41:19.870Z,55.02
2019-04-23T22:44:29.673Z,56.13
2019-04-23T22:47:05.972Z,56.66
2019-04-23T22:50:14.457Z,56.73
2019-04-23T22:56:35.157Z,55.95
2019-04-23T22:59:26.578Z,56.05
2019-04-23T23:02:36.694Z,56.66
2019-04-23T23:05:23.181Z,56.53
2019-04-23T23:08:14.629Z,56.76
2019-04-23T23:11:08.520Z,57.27
2019-04-23T23:17:18.484Z,56.26
2019-04-23T23:23:18.148Z,56.86
2019-04-23T23:29:12.383Z,56.53
2019-04-23T23:32:17.027Z,56.43
2019-04-23T23:38:21.543Z,56.33
2019-04-23T23:41:25.047Z,56.94
2019-04-23T23:47:14.691Z,57.67
2019-04-23T23:50:22.908Z,57.98
2019-04-23T23:56:30.228Z,57.98
